sensor_id;sensor_type;location;lat;lon;timestamp;temperature;humidity
39503;DHT22;26970;49.900;10.774;2022-08-25T00:01:22;19.00;99.90
39503;DHT22;26970;49.900;10.774;2022-08-25T00:03:48;19.10;99.90
39503;DHT22;26970;49.900;10.774;2022-08-25T00:06:15;19.00;99.90
39503;DHT22;26970;49.900;10.774;2022-08-25T00:08:41;18.90;99.90
39503;DHT22;26970;49.900;10.774;2022-08-25T00:11:17;19.00;99.90
39503;DHT22;26970;49.900;10.774;2022-08-25T00:13:45;18.70;99.90
39503;DHT22;26970;49.900;10.774;2022-08-25T00:16:12;18.90;99.90
39503;DHT22;26970;49.900;10.774;2022-08-25T00:18:40;18.60;99.90
39503;DHT22;26970;49.900;10.774;2022-08-25T00:21:06;18.70;99.90
39503;DHT22;26970;49.900;10.774;2022-08-25T00:23:32;18.70;99.90
39503;DHT22;26970;49.900;10.774;2022-08-25T00:25:57;18.70;99.90
39503;DHT22;26970;49.900;10.774;2022-08-25T00:28:23;18.70;99.90
39503;DHT22;26970;49.900;10.774;2022-08-25T00:30:49;18.70;99.90
39503;DHT22;26970;49.900;10.774;2022-08-25T00:33:16;18.60;99.90
39503;DHT22;26970;49.900;10.774;2022-08-25T00:35:42;18.60;99.90
39503;DHT22;26970;49.900;10.774;2022-08-25T00:38:09;18.60;99.90
39503;DHT22;26970;49.900;10.774;2022-08-25T00:40:36;18.60;99.90
39503;DHT22;26970;49.900;10.774;2022-08-25T00:43:02;18.60;99.90
39503;DHT22;26970;49.900;10.774;2022-08-25T00:45:27;18.50;99.90
39503;DHT22;26970;49.900;10.774;2022-08-25T00:47:53;18.50;99.90
39503;DHT22;26970;49.900;10.774;2022-08-25T00:50:20;18.40;99.90
39503;DHT22;26970;49.900;10.774;2022-08-25T00:52:50;18.30;99.90
39503;DHT22;26970;49.900;10.774;2022-08-25T00:55:30;18.20;99.90
39503;DHT22;26970;49.900;10.774;2022-08-25T00:58:05;18.20;99.90
39503;DHT22;26970;49.900;10.774;2022-08-25T01:00:36;18.20;99.90
39503;DHT22;26970;49.900;10.774;2022-08-25T01:03:02;18.20;99.90
39503;DHT22;26970;49.900;10.774;2022-08-25T01:05:28;18.20;99.90
39503;DHT22;26970;49.900;10.774;2022-08-25T01:07:58;18.30;99.90
39503;DHT22;26970;49.900;10.774;2022-08-25T01:10:29;18.30;99.90
39503;DHT22;26970;49.900;10.774;2022-08-25T01:12:59;18.40;99.90
39503;DHT22;26970;49.900;10.774;2022-08-25T01:15:26;18.30;99.90
39503;DHT22;26970;49.900;10.774;2022-08-25T01:17:55;18.20;99.90
39503;DHT22;26970;49.900;10.774;2022-08-25T01:20:23;18.20;99.90
39503;DHT22;26970;49.900;10.774;2022-08-25T01:22:50;18.20;99.90
39503;DHT22;26970;49.900;10.774;2022-08-25T01:25:31;18.20;99.90
39503;DHT22;26970;49.900;10.774;2022-08-25T01:27:59;18.30;99.90
39503;DHT22;26970;49.900;10.774;2022-08-25T01:30:26;18.30;99.90
39503;DHT22;26970;49.900;10.774;2022-08-25T01:32:51;18.30;99.90
39503;DHT22;26970;49.900;10.774;2022-08-25T01:35:17;18.30;99.90
39503;DHT22;26970;49.900;10.774;2022-08-25T01:37:43;18.20;99.90
39503;DHT22;26970;49.900;10.774;2022-08-25T01:40:09;18.30;99.90
39503;DHT22;26970;49.900;10.774;2022-08-25T01:42:57;18.10;99.90
39503;DHT22;26970;49.900;10.774;2022-08-25T01:45:26;18.30;99.90
39503;DHT22;26970;49.900;10.774;2022-08-25T01:47:52;18.10;99.90
39503;DHT22;26970;49.900;10.774;2022-08-25T01:50:18;18.10;99.90
39503;DHT22;26970;49.900;10.774;2022-08-25T01:52:53;18.00;99.90
39503;DHT22;26970;49.900;10.774;2022-08-25T01:55:22;18.00;99.90
39503;DHT22;26970;49.900;10.774;2022-08-25T01:57:48;18.10;99.90
39503;DHT22;26970;49.900;10.774;2022-08-25T02:00:14;18.00;99.90
39503;DHT22;26970;49.900;10.774;2022-08-25T02:02:40;18.00;99.90
39503;DHT22;26970;49.900;10.774;2022-08-25T02:05:08;18.00;99.90
39503;DHT22;26970;49.900;10.774;2022-08-25T02:07:35;18.00;99.90
39503;DHT22;26970;49.900;10.774;2022-08-25T02:10:01;17.90;99.90
39503;DHT22;26970;49.900;10.774;2022-08-25T02:12:29;17.90;99.90
39503;DHT22;26970;49.900;10.774;2022-08-25T02:14:56;17.90;99.90
39503;DHT22;26970;49.900;10.774;2022-08-25T02:17:22;18.00;99.90
39503;DHT22;26970;49.900;10.774;2022-08-25T02:19:48;17.90;99.90
39503;DHT22;26970;49.900;10.774;2022-08-25T02:22:15;17.80;99.90
39503;DHT22;26970;49.900;10.774;2022-08-25T02:24:41;17.80;99.90
39503;DHT22;26970;49.900;10.774;2022-08-25T02:27:07;17.80;99.90
39503;DHT22;26970;49.900;10.774;2022-08-25T02:29:34;17.70;99.90
39503;DHT22;26970;49.900;10.774;2022-08-25T02:31:59;17.70;99.90
39503;DHT22;26970;49.900;10.774;2022-08-25T02:34:25;17.70;99.90
39503;DHT22;26970;49.900;10.774;2022-08-25T02:36:50;17.70;99.90
39503;DHT22;26970;49.900;10.774;2022-08-25T02:39:16;17.60;99.90
39503;DHT22;26970;49.900;10.774;2022-08-25T02:41:41;17.60;99.90
39503;DHT22;26970;49.900;10.774;2022-08-25T02:44:07;17.60;99.90
39503;DHT22;26970;49.900;10.774;2022-08-25T02:46:34;17.60;99.90
39503;DHT22;26970;49.900;10.774;2022-08-25T02:49:00;17.60;99.90
39503;DHT22;26970;49.900;10.774;2022-08-25T02:51:27;17.50;99.90
39503;DHT22;26970;49.900;10.774;2022-08-25T02:53:54;17.60;99.90
39503;DHT22;26970;49.900;10.774;2022-08-25T02:56:21;17.50;99.90
39503;DHT22;26970;49.900;10.774;2022-08-25T02:58:47;17.50;99.90
39503;DHT22;26970;49.900;10.774;2022-08-25T03:01:13;17.50;99.90
39503;DHT22;26970;49.900;10.774;2022-08-25T03:03:41;17.40;99.90
39503;DHT22;26970;49.900;10.774;2022-08-25T03:06:07;17.40;99.90
39503;DHT22;26970;49.900;10.774;2022-08-25T03:08:34;17.40;99.90
39503;DHT22;26970;49.900;10.774;2022-08-25T03:11:00;17.30;99.90
39503;DHT22;26970;49.900;10.774;2022-08-25T03:13:25;17.40;99.90
39503;DHT22;26970;49.900;10.774;2022-08-25T03:15:51;17.40;99.90
39503;DHT22;26970;49.900;10.774;2022-08-25T03:18:16;17.30;99.90
39503;DHT22;26970;49.900;10.774;2022-08-25T03:20:42;17.20;99.90
39503;DHT22;26970;49.900;10.774;2022-08-25T03:23:08;17.20;99.90
39503;DHT22;26970;49.900;10.774;2022-08-25T03:25:34;17.20;99.90
39503;DHT22;26970;49.900;10.774;2022-08-25T03:28:18;17.20;99.90
39503;DHT22;26970;49.900;10.774;2022-08-25T03:30:44;17.10;99.90
39503;DHT22;26970;49.900;10.774;2022-08-25T03:33:10;17.10;99.90
39503;DHT22;26970;49.900;10.774;2022-08-25T03:35:35;17.00;99.90
39503;DHT22;26970;49.900;10.774;2022-08-25T03:38:01;17.00;99.90
39503;DHT22;26970;49.900;10.774;2022-08-25T03:40:27;17.10;99.90
39503;DHT22;26970;49.900;10.774;2022-08-25T03:42:53;17.00;99.90
39503;DHT22;26970;49.900;10.774;2022-08-25T03:45:19;17.00;99.90
39503;DHT22;26970;49.900;10.774;2022-08-25T03:47:46;17.00;99.90
39503;DHT22;26970;49.900;10.774;2022-08-25T03:50:13;16.90;99.90
39503;DHT22;26970;49.900;10.774;2022-08-25T03:52:40;16.90;99.90
39503;DHT22;26970;49.900;10.774;2022-08-25T03:55:07;16.90;99.90
39503;DHT22;26970;49.900;10.774;2022-08-25T03:57:33;16.90;99.90
39503;DHT22;26970;49.900;10.774;2022-08-25T03:59:59;17.60;99.90
39503;DHT22;26970;49.900;10.774;2022-08-25T04:02:25;17.00;99.90
39503;DHT22;26970;49.900;10.774;2022-08-25T04:04:51;17.00;99.90
39503;DHT22;26970;49.900;10.774;2022-08-25T04:07:16;17.00;99.90
39503;DHT22;26970;49.900;10.774;2022-08-25T04:09:42;17.00;99.90
39503;DHT22;26970;49.900;10.774;2022-08-25T04:12:07;17.00;99.90
39503;DHT22;26970;49.900;10.774;2022-08-25T04:14:33;17.00;99.90
39503;DHT22;26970;49.900;10.774;2022-08-25T04:16:59;17.00;99.90
39503;DHT22;26970;49.900;10.774;2022-08-25T04:19:24;17.00;99.90
39503;DHT22;26970;49.900;10.774;2022-08-25T04:21:50;17.00;99.90
39503;DHT22;26970;49.900;10.774;2022-08-25T04:24:16;17.00;99.90
39503;DHT22;26970;49.900;10.774;2022-08-25T04:26:45;16.90;99.90
39503;DHT22;26970;49.900;10.774;2022-08-25T04:29:12;16.90;99.90
39503;DHT22;26970;49.900;10.774;2022-08-25T04:31:41;16.80;99.90
39503;DHT22;26970;49.900;10.774;2022-08-25T04:34:07;16.80;99.90
39503;DHT22;26970;49.900;10.774;2022-08-25T04:36:34;16.80;99.90
39503;DHT22;26970;49.900;10.774;2022-08-25T04:38:59;16.80;99.90
39503;DHT22;26970;49.900;10.774;2022-08-25T04:41:25;16.80;99.90
39503;DHT22;26970;49.900;10.774;2022-08-25T04:43:52;16.80;99.90
39503;DHT22;26970;49.900;10.774;2022-08-25T04:46:20;16.80;99.90
39503;DHT22;26970;49.900;10.774;2022-08-25T04:48:49;16.80;99.90
39503;DHT22;26970;49.900;10.774;2022-08-25T04:51:17;16.80;99.90
39503;DHT22;26970;49.900;10.774;2022-08-25T04:53:43;16.80;99.90
39503;DHT22;26970;49.900;10.774;2022-08-25T04:56:11;16.80;99.90
39503;DHT22;26970;49.900;10.774;2022-08-25T04:58:38;16.80;99.90
39503;DHT22;26970;49.900;10.774;2022-08-25T05:01:07;16.80;99.90
39503;DHT22;26970;49.900;10.774;2022-08-25T05:03:34;16.80;99.90
39503;DHT22;26970;49.900;10.774;2022-08-25T05:06:00;16.90;99.90
39503;DHT22;26970;49.900;10.774;2022-08-25T05:08:26;16.90;99.90
39503;DHT22;26970;49.900;10.774;2022-08-25T05:10:52;17.00;99.90
39503;DHT22;26970;49.900;10.774;2022-08-25T05:13:22;17.10;99.90
39503;DHT22;26970;49.900;10.774;2022-08-25T05:15:56;18.50;99.90
39503;DHT22;26970;49.900;10.774;2022-08-25T05:18:24;17.30;99.90
39503;DHT22;26970;49.900;10.774;2022-08-25T05:20:50;17.30;99.90
39503;DHT22;26970;49.900;10.774;2022-08-25T05:23:19;17.30;99.90
39503;DHT22;26970;49.900;10.774;2022-08-25T05:25:44;17.30;99.90
39503;DHT22;26970;49.900;10.774;2022-08-25T05:28:10;17.40;99.90
39503;DHT22;26970;49.900;10.774;2022-08-25T05:30:39;17.50;99.90
39503;DHT22;26970;49.900;10.774;2022-08-25T05:33:06;17.60;99.90
39503;DHT22;26970;49.900;10.774;2022-08-25T05:35:35;17.50;99.90
39503;DHT22;26970;49.900;10.774;2022-08-25T05:38:01;17.60;99.90
39503;DHT22;26970;49.900;10.774;2022-08-25T05:40:28;17.80;99.90
39503;DHT22;26970;49.900;10.774;2022-08-25T05:42:53;18.00;99.90
39503;DHT22;26970;49.900;10.774;2022-08-25T05:45:19;18.20;99.90
39503;DHT22;26970;49.900;10.774;2022-08-25T05:47:45;18.30;99.90
39503;DHT22;26970;49.900;10.774;2022-08-25T05:50:10;18.50;99.90
39503;DHT22;26970;49.900;10.774;2022-08-25T05:52:36;18.70;99.90
39503;DHT22;26970;49.900;10.774;2022-08-25T05:55:02;18.80;99.90
39503;DHT22;26970;49.900;10.774;2022-08-25T05:57:28;19.00;99.90
39503;DHT22;26970;49.900;10.774;2022-08-25T05:59:53;19.00;99.90
39503;DHT22;26970;49.900;10.774;2022-08-25T06:02:19;19.10;99.90
39503;DHT22;26970;49.900;10.774;2022-08-25T06:05:03;19.20;99.90
39503;DHT22;26970;49.900;10.774;2022-08-25T06:07:29;19.30;99.90
39503;DHT22;26970;49.900;10.774;2022-08-25T06:09:54;19.40;99.90
39503;DHT22;26970;49.900;10.774;2022-08-25T06:12:20;19.40;99.90
39503;DHT22;26970;49.900;10.774;2022-08-25T06:14:46;19.50;99.90
39503;DHT22;26970;49.900;10.774;2022-08-25T06:17:13;19.40;99.90
39503;DHT22;26970;49.900;10.774;2022-08-25T06:19:38;19.50;99.90
39503;DHT22;26970;49.900;10.774;2022-08-25T06:22:04;19.50;99.90
39503;DHT22;26970;49.900;10.774;2022-08-25T06:24:29;19.70;99.90
39503;DHT22;26970;49.900;10.774;2022-08-25T06:26:55;19.90;99.90
39503;DHT22;26970;49.900;10.774;2022-08-25T06:29:21;19.90;99.90
39503;DHT22;26970;49.900;10.774;2022-08-25T06:31:47;20.00;99.90
39503;DHT22;26970;49.900;10.774;2022-08-25T06:34:14;20.10;99.90
39503;DHT22;26970;49.900;10.774;2022-08-25T06:36:40;20.10;99.90
39503;DHT22;26970;49.900;10.774;2022-08-25T06:39:06;20.20;99.90
39503;DHT22;26970;49.900;10.774;2022-08-25T06:41:32;20.40;99.90
39503;DHT22;26970;49.900;10.774;2022-08-25T06:43:57;20.40;99.90
39503;DHT22;26970;49.900;10.774;2022-08-25T06:46:25;20.40;99.90
39503;DHT22;26970;49.900;10.774;2022-08-25T06:48:54;20.40;99.90
39503;DHT22;26970;49.900;10.774;2022-08-25T06:51:22;20.60;99.90
39503;DHT22;26970;49.900;10.774;2022-08-25T06:53:49;20.50;99.90
39503;DHT22;26970;49.900;10.774;2022-08-25T06:56:16;20.50;99.90
39503;DHT22;26970;49.900;10.774;2022-08-25T06:58:41;20.50;99.90
39503;DHT22;26970;49.900;10.774;2022-08-25T07:01:18;20.40;99.90
39503;DHT22;26970;49.900;10.774;2022-08-25T07:03:47;20.30;99.90
39503;DHT22;26970;49.900;10.774;2022-08-25T07:06:13;20.20;99.90
39503;DHT22;26970;49.900;10.774;2022-08-25T07:08:39;20.20;99.90
39503;DHT22;26970;49.900;10.774;2022-08-25T07:11:09;20.30;99.90
39503;DHT22;26970;49.900;10.774;2022-08-25T07:13:35;20.40;99.90
39503;DHT22;26970;49.900;10.774;2022-08-25T07:16:02;20.70;99.90
39503;DHT22;26970;49.900;10.774;2022-08-25T07:18:27;21.00;99.90
39503;DHT22;26970;49.900;10.774;2022-08-25T07:20:54;21.20;99.90
39503;DHT22;26970;49.900;10.774;2022-08-25T07:23:21;21.30;99.90
39503;DHT22;26970;49.900;10.774;2022-08-25T07:25:47;21.60;99.90
39503;DHT22;26970;49.900;10.774;2022-08-25T07:28:14;21.70;99.90
39503;DHT22;26970;49.900;10.774;2022-08-25T07:30:40;21.90;99.90
39503;DHT22;26970;49.900;10.774;2022-08-25T07:33:05;22.20;99.90
39503;DHT22;26970;49.900;10.774;2022-08-25T07:35:31;22.40;99.90
39503;DHT22;26970;49.900;10.774;2022-08-25T07:37:58;22.70;99.90
39503;DHT22;26970;49.900;10.774;2022-08-25T07:40:27;22.90;99.90
39503;DHT22;26970;49.900;10.774;2022-08-25T07:42:55;22.80;99.90
39503;DHT22;26970;49.900;10.774;2022-08-25T07:45:24;22.90;99.90
39503;DHT22;26970;49.900;10.774;2022-08-25T07:47:59;22.90;99.90
39503;DHT22;26970;49.900;10.774;2022-08-25T07:50:26;22.80;99.90
39503;DHT22;26970;49.900;10.774;2022-08-25T07:52:52;23.00;99.90
39503;DHT22;26970;49.900;10.774;2022-08-25T07:55:18;23.20;99.90
39503;DHT22;26970;49.900;10.774;2022-08-25T07:57:44;23.40;99.90
39503;DHT22;26970;49.900;10.774;2022-08-25T08:00:13;23.50;99.90
39503;DHT22;26970;49.900;10.774;2022-08-25T08:02:39;23.70;99.90
39503;DHT22;26970;49.900;10.774;2022-08-25T08:05:06;23.90;99.90
39503;DHT22;26970;49.900;10.774;2022-08-25T08:07:32;24.00;99.90
39503;DHT22;26970;49.900;10.774;2022-08-25T08:09:57;24.00;99.90
39503;DHT22;26970;49.900;10.774;2022-08-25T08:12:24;24.10;99.90
39503;DHT22;26970;49.900;10.774;2022-08-25T08:14:50;24.20;99.90
39503;DHT22;26970;49.900;10.774;2022-08-25T08:17:16;24.20;99.90
39503;DHT22;26970;49.900;10.774;2022-08-25T08:19:42;24.10;99.90
39503;DHT22;26970;49.900;10.774;2022-08-25T08:22:07;24.10;99.90
39503;DHT22;26970;49.900;10.774;2022-08-25T08:24:36;24.40;99.90
39503;DHT22;26970;49.900;10.774;2022-08-25T08:27:07;24.60;99.90
39503;DHT22;26970;49.900;10.774;2022-08-25T08:29:37;24.70;99.90
39503;DHT22;26970;49.900;10.774;2022-08-25T08:32:04;24.80;99.90
39503;DHT22;26970;49.900;10.774;2022-08-25T08:34:30;25.00;99.90
39503;DHT22;26970;49.900;10.774;2022-08-25T08:36:56;25.40;99.90
39503;DHT22;26970;49.900;10.774;2022-08-25T08:39:22;25.70;99.90
39503;DHT22;26970;49.900;10.774;2022-08-25T08:44:53;25.70;99.90
39503;DHT22;26970;49.900;10.774;2022-08-25T08:50:36;25.70;99.90
39503;DHT22;26970;49.900;10.774;2022-08-25T08:55:52;25.90;99.90
39503;DHT22;26970;49.900;10.774;2022-08-25T08:58:23;26.20;99.90
39503;DHT22;26970;49.900;10.774;2022-08-25T09:00:52;26.40;99.90
39503;DHT22;26970;49.900;10.774;2022-08-25T09:03:37;26.30;99.90
39503;DHT22;26970;49.900;10.774;2022-08-25T09:06:52;25.90;99.90
39503;DHT22;26970;49.900;10.774;2022-08-25T09:09:02;25.90;99.90
39503;DHT22;26970;49.900;10.774;2022-08-25T09:11:46;26.10;99.90
39503;DHT22;26970;49.900;10.774;2022-08-25T09:14:56;26.10;99.90
39503;DHT22;26970;49.900;10.774;2022-08-25T09:25:29;26.80;99.90
39503;DHT22;26970;49.900;10.774;2022-08-25T09:28:06;27.20;99.90
39503;DHT22;26970;49.900;10.774;2022-08-25T09:30:44;27.20;99.90
39503;DHT22;26970;49.900;10.774;2022-08-25T09:33:19;27.20;99.90
39503;DHT22;26970;49.900;10.774;2022-08-25T09:35:45;27.40;99.90
39503;DHT22;26970;49.900;10.774;2022-08-25T09:38:12;27.30;99.90
39503;DHT22;26970;49.900;10.774;2022-08-25T09:40:43;27.30;99.90
39503;DHT22;26970;49.900;10.774;2022-08-25T09:48:41;27.40;99.90
39503;DHT22;26970;49.900;10.774;2022-08-25T09:56:24;27.60;99.90
39503;DHT22;26970;49.900;10.774;2022-08-25T09:58:51;27.90;99.90
39503;DHT22;26970;49.900;10.774;2022-08-25T10:01:21;28.00;99.90
39503;DHT22;26970;49.900;10.774;2022-08-25T10:04:10;28.10;99.90
39503;DHT22;26970;49.900;10.774;2022-08-25T10:06:43;28.20;99.90
39503;DHT22;26970;49.900;10.774;2022-08-25T10:09:13;28.10;99.80
39503;DHT22;26970;49.900;10.774;2022-08-25T10:11:46;28.20;99.30
39503;DHT22;26970;49.900;10.774;2022-08-25T10:16:47;28.00;99.90
39503;DHT22;26970;49.900;10.774;2022-08-25T10:19:28;27.80;99.90
39503;DHT22;26970;49.900;10.774;2022-08-25T10:24:28;28.10;99.70
39503;DHT22;26970;49.900;10.774;2022-08-25T10:34:58;28.30;98.80
39503;DHT22;26970;49.900;10.774;2022-08-25T10:40:24;27.80;97.80
39503;DHT22;26970;49.900;10.774;2022-08-25T10:43:05;28.00;97.90
39503;DHT22;26970;49.900;10.774;2022-08-25T10:48:33;28.60;97.30
39503;DHT22;26970;49.900;10.774;2022-08-25T10:56:35;28.40;96.80
39503;DHT22;26970;49.900;10.774;2022-08-25T11:05:02;27.90;97.80
39503;DHT22;26970;49.900;10.774;2022-08-25T11:07:35;28.10;97.70
39503;DHT22;26970;49.900;10.774;2022-08-25T11:10:29;28.30;97.50
39503;DHT22;26970;49.900;10.774;2022-08-25T11:12:57;28.40;97.30
39503;DHT22;26970;49.900;10.774;2022-08-25T11:15:35;28.20;97.90
39503;DHT22;26970;49.900;10.774;2022-08-25T11:18:12;28.40;97.90
39503;DHT22;26970;49.900;10.774;2022-08-25T11:20:57;28.50;97.30
39503;DHT22;26970;49.900;10.774;2022-08-25T11:23:30;28.50;97.00
39503;DHT22;26970;49.900;10.774;2022-08-25T11:26:02;28.30;96.90
39503;DHT22;26970;49.900;10.774;2022-08-25T11:28:46;28.20;96.90
39503;DHT22;26970;49.900;10.774;2022-08-25T11:31:17;28.00;96.80
39503;DHT22;26970;49.900;10.774;2022-08-25T11:33:44;27.80;97.10
39503;DHT22;26970;49.900;10.774;2022-08-25T11:38:59;27.90;97.60
39503;DHT22;26970;49.900;10.774;2022-08-25T11:41:52;28.10;97.40
39503;DHT22;26970;49.900;10.774;2022-08-25T11:55:12;27.60;97.60
39503;DHT22;26970;49.900;10.774;2022-08-25T11:57:39;27.90;97.60
39503;DHT22;26970;49.900;10.774;2022-08-25T12:00:34;28.20;97.20
39503;DHT22;26970;49.900;10.774;2022-08-25T12:06:33;28.70;96.40
39503;DHT22;26970;49.900;10.774;2022-08-25T12:17:02;29.10;95.80
39503;DHT22;26970;49.900;10.774;2022-08-25T12:19:48;29.20;95.50
39503;DHT22;26970;49.900;10.774;2022-08-25T12:24:57;29.20;95.30
39503;DHT22;26970;49.900;10.774;2022-08-25T12:27:39;29.30;95.30
39503;DHT22;26970;49.900;10.774;2022-08-25T12:38:13;29.60;94.80
39503;DHT22;26970;49.900;10.774;2022-08-25T12:48:57;28.90;95.70
39503;DHT22;26970;49.900;10.774;2022-08-25T12:54:15;29.20;95.60
39503;DHT22;26970;49.900;10.774;2022-08-25T12:56:46;29.10;95.40
39503;DHT22;26970;49.900;10.774;2022-08-25T13:10:55;28.60;95.90
39503;DHT22;26970;49.900;10.774;2022-08-25T13:16:08;29.10;95.90
39503;DHT22;26970;49.900;10.774;2022-08-25T13:18:39;29.40;95.30
39503;DHT22;26970;49.900;10.774;2022-08-25T13:23:45;29.20;95.50
39503;DHT22;26970;49.900;10.774;2022-08-25T13:26:13;29.20;95.30
39503;DHT22;26970;49.900;10.774;2022-08-25T13:28:40;29.10;94.90
39503;DHT22;26970;49.900;10.774;2022-08-25T13:31:13;29.00;94.60
39503;DHT22;26970;49.900;10.774;2022-08-25T13:33:52;28.90;94.10
39503;DHT22;26970;49.900;10.774;2022-08-25T13:36:18;29.00;94.90
39503;DHT22;26970;49.900;10.774;2022-08-25T13:39:32;29.20;94.40
39503;DHT22;26970;49.900;10.774;2022-08-25T13:42:00;28.90;93.50
39503;DHT22;26970;49.900;10.774;2022-08-25T13:44:29;28.70;93.90
39503;DHT22;26970;49.900;10.774;2022-08-25T13:49:32;28.50;94.10
39503;DHT22;26970;49.900;10.774;2022-08-25T13:51:58;28.50;94.00
39503;DHT22;26970;49.900;10.774;2022-08-25T13:54:27;28.50;94.00
39503;DHT22;26970;49.900;10.774;2022-08-25T13:56:53;28.30;94.10
39503;DHT22;26970;49.900;10.774;2022-08-25T13:59:35;28.20;94.30
39503;DHT22;26970;49.900;10.774;2022-08-25T14:02:01;28.30;94.30
39503;DHT22;26970;49.900;10.774;2022-08-25T14:13:12;28.20;94.50
39503;DHT22;26970;49.900;10.774;2022-08-25T14:15:38;28.20;93.70
39503;DHT22;26970;49.900;10.774;2022-08-25T14:18:19;28.20;92.90
39503;DHT22;26970;49.900;10.774;2022-08-25T14:20:49;28.30;93.30
39503;DHT22;26970;49.900;10.774;2022-08-25T14:23:18;28.40;93.80
39503;DHT22;26970;49.900;10.774;2022-08-25T14:25:46;28.60;93.40
39503;DHT22;26970;49.900;10.774;2022-08-25T14:28:15;28.60;93.60
39503;DHT22;26970;49.900;10.774;2022-08-25T14:30:48;28.60;93.90
39503;DHT22;26970;49.900;10.774;2022-08-25T14:33:16;28.60;93.80
39503;DHT22;26970;49.900;10.774;2022-08-25T14:35:46;28.50;93.40
39503;DHT22;26970;49.900;10.774;2022-08-25T14:38:13;28.50;93.40
39503;DHT22;26970;49.900;10.774;2022-08-25T14:40:39;28.60;92.70
39503;DHT22;26970;49.900;10.774;2022-08-25T14:43:08;28.80;92.70
39503;DHT22;26970;49.900;10.774;2022-08-25T14:45:36;28.80;93.00
39503;DHT22;26970;49.900;10.774;2022-08-25T14:48:06;28.80;93.00
39503;DHT22;26970;49.900;10.774;2022-08-25T14:50:32;28.90;92.90
39503;DHT22;26970;49.900;10.774;2022-08-25T14:52:59;29.00;92.80
39503;DHT22;26970;49.900;10.774;2022-08-25T14:55:25;29.10;93.10
39503;DHT22;26970;49.900;10.774;2022-08-25T14:57:50;29.00;93.30
39503;DHT22;26970;49.900;10.774;2022-08-25T15:00:16;29.10;93.70
39503;DHT22;26970;49.900;10.774;2022-08-25T15:02:42;28.80;93.10
39503;DHT22;26970;49.900;10.774;2022-08-25T15:05:19;28.80;92.80
39503;DHT22;26970;49.900;10.774;2022-08-25T15:07:45;28.80;93.00
39503;DHT22;26970;49.900;10.774;2022-08-25T15:10:29;28.80;93.20
39503;DHT22;26970;49.900;10.774;2022-08-25T15:12:55;28.70;93.40
39503;DHT22;26970;49.900;10.774;2022-08-25T15:15:21;28.70;93.30
39503;DHT22;26970;49.900;10.774;2022-08-25T15:17:50;28.70;93.40
39503;DHT22;26970;49.900;10.774;2022-08-25T15:20:16;28.70;93.10
39503;DHT22;26970;49.900;10.774;2022-08-25T15:22:42;28.70;93.40
39503;DHT22;26970;49.900;10.774;2022-08-25T15:25:09;28.80;93.80
39503;DHT22;26970;49.900;10.774;2022-08-25T15:27:35;28.80;94.00
39503;DHT22;26970;49.900;10.774;2022-08-25T15:30:02;28.80;94.00
39503;DHT22;26970;49.900;10.774;2022-08-25T15:32:28;28.80;94.30
39503;DHT22;26970;49.900;10.774;2022-08-25T15:34:53;28.70;94.00
39503;DHT22;26970;49.900;10.774;2022-08-25T15:37:19;28.60;93.90
39503;DHT22;26970;49.900;10.774;2022-08-25T15:39:45;28.70;93.90
39503;DHT22;26970;49.900;10.774;2022-08-25T15:42:11;28.70;94.00
39503;DHT22;26970;49.900;10.774;2022-08-25T15:44:38;28.50;94.50
39503;DHT22;26970;49.900;10.774;2022-08-25T15:47:05;28.30;94.60
39503;DHT22;26970;49.900;10.774;2022-08-25T15:49:31;28.20;94.60
39503;DHT22;26970;49.900;10.774;2022-08-25T15:51:56;28.10;94.80
39503;DHT22;26970;49.900;10.774;2022-08-25T15:54:23;28.10;94.90
39503;DHT22;26970;49.900;10.774;2022-08-25T15:56:51;28.10;95.00
39503;DHT22;26970;49.900;10.774;2022-08-25T15:59:17;28.10;95.00
39503;DHT22;26970;49.900;10.774;2022-08-25T16:01:42;28.10;95.00
39503;DHT22;26970;49.900;10.774;2022-08-25T16:04:09;28.10;95.00
39503;DHT22;26970;49.900;10.774;2022-08-25T16:06:34;28.10;95.00
39503;DHT22;26970;49.900;10.774;2022-08-25T16:09:01;28.00;95.10
39503;DHT22;26970;49.900;10.774;2022-08-25T16:11:29;28.00;95.30
39503;DHT22;26970;49.900;10.774;2022-08-25T16:13:55;27.90;95.50
39503;DHT22;26970;49.900;10.774;2022-08-25T16:16:23;27.90;95.70
39503;DHT22;26970;49.900;10.774;2022-08-25T16:18:50;27.90;95.30
39503;DHT22;26970;49.900;10.774;2022-08-25T16:21:18;27.90;95.40
39503;DHT22;26970;49.900;10.774;2022-08-25T16:23:45;27.90;95.00
39503;DHT22;26970;49.900;10.774;2022-08-25T16:26:10;28.00;95.30
39503;DHT22;26970;49.900;10.774;2022-08-25T16:28:37;28.00;94.80
39503;DHT22;26970;49.900;10.774;2022-08-25T16:31:04;28.00;95.00
39503;DHT22;26970;49.900;10.774;2022-08-25T16:33:30;27.90;94.90
39503;DHT22;26970;49.900;10.774;2022-08-25T16:36:07;27.90;95.20
39503;DHT22;26970;49.900;10.774;2022-08-25T16:38:33;27.80;95.20
39503;DHT22;26970;49.900;10.774;2022-08-25T16:40:59;27.70;95.30
39503;DHT22;26970;49.900;10.774;2022-08-25T16:43:25;27.70;95.40
39503;DHT22;26970;49.900;10.774;2022-08-25T16:45:58;27.70;95.40
39503;DHT22;26970;49.900;10.774;2022-08-25T16:48:24;27.70;95.50
39503;DHT22;26970;49.900;10.774;2022-08-25T16:50:50;27.80;95.50
39503;DHT22;26970;49.900;10.774;2022-08-25T16:53:15;27.70;95.70
39503;DHT22;26970;49.900;10.774;2022-08-25T16:56:01;27.70;95.70
39503;DHT22;26970;49.900;10.774;2022-08-25T16:58:27;27.70;95.90
39503;DHT22;26970;49.900;10.774;2022-08-25T17:00:52;27.70;96.00
39503;DHT22;26970;49.900;10.774;2022-08-25T17:03:18;27.60;96.20
39503;DHT22;26970;49.900;10.774;2022-08-25T17:05:44;27.50;96.40
39503;DHT22;26970;49.900;10.774;2022-08-25T17:08:09;27.50;96.50
39503;DHT22;26970;49.900;10.774;2022-08-25T17:13:31;27.40;96.70
39503;DHT22;26970;49.900;10.774;2022-08-25T17:15:56;27.30;96.90
39503;DHT22;26970;49.900;10.774;2022-08-25T17:18:23;27.20;97.00
39503;DHT22;26970;49.900;10.774;2022-08-25T17:20:57;27.10;97.10
39503;DHT22;26970;49.900;10.774;2022-08-25T17:23:23;27.00;97.40
39503;DHT22;26970;49.900;10.774;2022-08-25T17:25:48;27.00;97.50
39503;DHT22;26970;49.900;10.774;2022-08-25T17:28:16;26.90;97.70
39503;DHT22;26970;49.900;10.774;2022-08-25T17:30:43;26.90;97.80
39503;DHT22;26970;49.900;10.774;2022-08-25T17:33:09;26.80;97.80
39503;DHT22;26970;49.900;10.774;2022-08-25T17:35:40;26.80;97.90
39503;DHT22;26970;49.900;10.774;2022-08-25T17:38:06;26.70;98.00
39503;DHT22;26970;49.900;10.774;2022-08-25T17:40:33;26.60;98.10